createdAt,value
2017-11-25T00:00:02.773Z,11.06
2017-11-25T00:00:06.931Z,11.05
2017-11-25T00:00:11.186Z,11.09
2017-11-25T00:00:15.381Z,11.11
2017-11-25T00:00:19.750Z,11.11
2017-11-25T00:00:24.121Z,11.05
2017-11-25T00:00:28.505Z,11.11
2017-11-25T00:00:32.769Z,11.03
2017-11-25T00:00:37.158Z,11.03
2017-11-25T00:00:41.479Z,11.05
2017-11-25T00:00:45.754Z,11.09
2017-11-25T00:00:50.148Z,11.05
2017-11-25T00:00:54.420Z,11.01
2017-11-25T00:00:58.795Z,11.01
2017-11-25T00:01:03.105Z,11.05
2017-11-25T00:01:07.488Z,11.08
2017-11-25T00:01:11.851Z,11.02
2017-11-25T00:01:16.231Z,11.05
2017-11-25T00:01:20.604Z,11.02
2017-11-25T00:01:24.969Z,11.11
2017-11-25T00:01:29.233Z,11.03
2017-11-25T00:01:33.386Z,11.08
2017-11-25T00:01:37.536Z,11.05
2017-11-25T00:01:41.796Z,11.01
2017-11-25T00:01:46.084Z,11.06
2017-11-25T00:01:50.449Z,11.09
2017-11-25T00:01:54.853Z,11.03
2017-11-25T00:01:59.164Z,11.02
2017-11-25T00:02:03.429Z,11.06
2017-11-25T00:02:07.601Z,11.11
2017-11-25T00:02:11.872Z,11.01
2017-11-25T00:02:16.254Z,11.05
2017-11-25T00:02:20.529Z,11.05
2017-11-25T00:02:24.677Z,11.02
2017-11-25T00:02:28.939Z,11.01
2017-11-25T00:02:33.311Z,11.02
2017-11-25T00:02:37.480Z,11.01
2017-11-25T00:02:41.408Z,11.01
2017-11-25T00:02:45.561Z,10.95
2017-11-25T00:02:49.871Z,11.03
2017-11-25T00:02:54.127Z,11.03
2017-11-25T00:02:58.380Z,11.09
2017-11-25T00:03:02.535Z,10.95
2017-11-25T00:03:06.825Z,11.08
2017-11-25T00:03:11.087Z,11.01
2017-11-25T00:03:15.352Z,10.95
2017-11-25T00:03:19.515Z,10.91
2017-11-25T00:03:23.784Z,10.99
2017-11-25T00:03:27.945Z,11.01
2017-11-25T00:03:32.327Z,10.98
2017-11-25T00:03:36.600Z,11.02
2017-11-25T00:03:40.766Z,10.94
2017-11-25T00:03:45.134Z,11.02
2017-11-25T00:03:49.408Z,10.95
2017-11-25T00:03:53.668Z,10.99
2017-11-25T00:03:58.055Z,10.94
2017-11-25T00:04:02.304Z,10.91
2017-11-25T00:04:06.720Z,10.98
2017-11-25T00:04:10.993Z,10.98
2017-11-25T00:04:15.262Z,10.91
2017-11-25T00:04:19.643Z,10.9
2017-11-25T00:04:23.924Z,10.88
2017-11-25T00:04:28.308Z,10.9
2017-11-25T00:04:32.708Z,11.02
2017-11-25T00:04:37.011Z,11.01
2017-11-25T00:04:41.160Z,10.98
2017-11-25T00:04:45.549Z,10.9
2017-11-25T00:04:49.922Z,10.87
2017-11-25T00:04:54.189Z,10.94
2017-11-25T00:04:58.563Z,10.99
2017-11-25T00:05:02.850Z,10.9
2017-11-25T00:05:07.014Z,10.99
2017-11-25T00:05:11.406Z,10.91
2017-11-25T00:05:15.558Z,10.98
2017-11-25T00:05:19.815Z,10.9
2017-11-25T00:05:24.093Z,10.9
2017-11-25T00:05:28.480Z,10.94
2017-11-25T00:05:32.626Z,10.93
2017-11-25T00:05:37.011Z,10.95
2017-11-25T00:05:41.286Z,10.93
2017-11-25T00:05:45.547Z,10.95
2017-11-25T00:05:49.823Z,10.9
2017-11-25T00:05:54.245Z,10.94
2017-11-25T00:05:58.629Z,10.95
2017-11-25T00:06:03.228Z,10.91
2017-11-25T00:06:07.502Z,10.9
2017-11-25T00:06:11.772Z,10.98
2017-11-25T00:06:16.161Z,10.94
2017-11-25T00:06:20.514Z,10.98
2017-11-25T00:06:24.893Z,10.94
2017-11-25T00:06:29.293Z,10.93
2017-11-25T00:06:33.680Z,10.9
2017-11-25T00:06:38.067Z,10.91
2017-11-25T00:06:42.322Z,10.99
2017-11-25T00:06:46.581Z,10.95
2017-11-25T00:06:50.715Z,10.9
2017-11-25T00:06:55.116Z,10.95
2017-11-25T00:06:59.251Z,10.94
2017-11-25T00:07:03.772Z,10.93
2017-11-25T00:07:08.149Z,10.94
2017-11-25T00:07:12.301Z,10.94
2017-11-25T00:07:16.567Z,10.88
2017-11-25T00:07:20.956Z,10.93
2017-11-25T00:07:25.223Z,11.02
2017-11-25T00:07:29.484Z,10.95
2017-11-25T00:07:33.896Z,10.94
2017-11-25T00:07:38.145Z,10.98
2017-11-25T00:07:42.407Z,10.98
2017-11-25T00:07:46.681Z,10.99
2017-11-25T00:07:50.736Z,10.94
2017-11-25T00:07:54.906Z,10.98
2017-11-25T00:07:59.049Z,10.94
2017-11-25T00:08:03.442Z,10.98
2017-11-25T00:08:07.638Z,10.99
2017-11-25T00:08:11.919Z,10.9
2017-11-25T00:08:16.187Z,10.95
2017-11-25T00:08:20.549Z,10.88
2017-11-25T00:08:24.724Z,10.91
2017-11-25T00:08:29.130Z,10.91
2017-11-25T00:08:33.395Z,10.91
2017-11-25T00:08:37.811Z,10.95
2017-11-25T00:08:42.180Z,10.91
2017-11-25T00:08:46.436Z,10.98
2017-11-25T00:08:50.710Z,10.91
2017-11-25T00:08:54.865Z,10.94
2017-11-25T00:08:59.239Z,10.93
2017-11-25T00:09:03.670Z,10.99
2017-11-25T00:09:08.044Z,10.95
2017-11-25T00:09:12.307Z,10.94
2017-11-25T00:09:16.677Z,10.94
2017-11-25T00:09:20.984Z,10.88
2017-11-25T00:09:25.042Z,10.91
2017-11-25T00:09:29.423Z,10.9
2017-11-25T00:09:33.804Z,10.94
2017-11-25T00:09:37.959Z,10.93
2017-11-25T00:09:42.213Z,10.94
2017-11-25T00:09:46.609Z,10.99
2017-11-25T00:09:50.884Z,10.9
2017-11-25T00:09:54.808Z,10.95
2017-11-25T00:09:59.085Z,10.94
2017-11-25T00:10:03.348Z,10.94
2017-11-25T00:10:07.615Z,10.95
2017-11-25T00:10:11.887Z,10.93
2017-11-25T00:10:16.258Z,10.99
2017-11-25T00:10:20.420Z,10.95
2017-11-25T00:10:24.707Z,10.94
2017-11-25T00:10:28.981Z,10.98
2017-11-25T00:10:33.350Z,10.99
2017-11-25T00:10:37.626Z,10.99
2017-11-25T00:10:41.998Z,10.94
2017-11-25T00:10:46.269Z,10.9
2017-11-25T00:10:50.530Z,10.87
2017-11-25T00:10:54.899Z,10.94
2017-11-25T00:10:59.193Z,10.98
2017-11-25T00:11:03.350Z,10.87
2017-11-25T00:11:07.724Z,10.94
2017-11-25T00:11:11.871Z,10.98
2017-11-25T00:11:16.240Z,10.93
2017-11-25T00:11:20.609Z,10.88
2017-11-25T00:11:24.873Z,10.94
2017-11-25T00:11:29.150Z,11.01
2017-11-25T00:11:33.516Z,10.94
2017-11-25T00:11:37.771Z,10.95
2017-11-25T00:11:41.708Z,10.95
2017-11-25T00:11:45.978Z,10.94
2017-11-25T00:11:50.236Z,10.99
2017-11-25T00:11:54.610Z,11.02
2017-11-25T00:11:58.993Z,10.94
2017-11-25T00:12:03.693Z,10.95
2017-11-25T00:12:08.000Z,10.95
2017-11-25T00:12:12.379Z,10.94
2017-11-25T00:12:16.756Z,10.94
2017-11-25T00:12:21.013Z,10.98
2017-11-25T00:12:25.406Z,11.01
2017-11-25T00:12:29.783Z,10.98
2017-11-25T00:12:34.198Z,10.91
2017-11-25T00:12:38.253Z,10.98
2017-11-25T00:12:42.545Z,10.9
2017-11-25T00:12:46.939Z,10.98
2017-11-25T00:12:51.239Z,10.94
2017-11-25T00:12:55.375Z,10.98
2017-11-25T00:12:59.658Z,10.94
2017-11-25T00:13:03.715Z,10.91
2017-11-25T00:13:08.102Z,10.94
2017-11-25T00:13:12.269Z,10.98
2017-11-25T00:13:16.528Z,10.99
2017-11-25T00:13:20.916Z,11.02
2017-11-25T00:13:25.186Z,11.01
2017-11-25T00:13:29.472Z,10.9
2017-11-25T00:13:33.742Z,11.02
2017-11-25T00:13:37.891Z,10.98
2017-11-25T00:13:42.265Z,10.94
2017-11-25T00:13:46.634Z,10.95
2017-11-25T00:13:50.787Z,11.06
2017-11-25T00:13:55.167Z,10.99
2017-11-25T00:13:59.433Z,10.99
2017-11-25T00:14:03.711Z,10.99
2017-11-25T00:14:07.990Z,11.01
2017-11-25T00:14:12.260Z,10.95
2017-11-25T00:14:16.529Z,10.98
2017-11-25T00:14:20.785Z,10.98
2017-11-25T00:14:25.050Z,11.02
2017-11-25T00:14:29.441Z,11.03
2017-11-25T00:14:33.816Z,10.95
2017-11-25T00:14:37.877Z,11.08
2017-11-25T00:14:42.306Z,10.95
2017-11-25T00:14:46.571Z,10.95
2017-11-25T00:14:50.920Z,11.01
2017-11-25T00:14:55.211Z,10.95
2017-11-25T00:14:59.491Z,11.05
2017-11-25T00:15:04.022Z,10.99
2017-11-25T00:15:08.303Z,10.98
2017-11-25T00:15:12.690Z,10.99
2017-11-25T00:15:17.063Z,10.95
2017-11-25T00:15:21.342Z,11.02
2017-11-25T00:15:25.606Z,10.98
2017-11-25T00:15:29.988Z,10.99
2017-11-25T00:15:34.396Z,11.03
2017-11-25T00:15:38.657Z,11.05
2017-11-25T00:15:42.932Z,11.05
2017-11-25T00:15:47.110Z,11.01
2017-11-25T00:15:51.493Z,10.94
2017-11-25T00:15:55.640Z,10.99
2017-11-25T00:16:00.022Z,11.02
2017-11-25T00:16:04.666Z,10.99
2017-11-25T00:16:09.028Z,10.95
2017-11-25T00:16:13.311Z,10.99
2017-11-25T00:16:17.463Z,10.94
2017-11-25T00:16:21.737Z,11.01
2017-11-25T00:16:25.904Z,10.98
2017-11-25T00:16:30.089Z,11.02
2017-11-25T00:16:34.357Z,10.99
2017-11-25T00:16:38.619Z,10.98
2017-11-25T00:16:42.905Z,10.99
2017-11-25T00:16:47.273Z,11.02
2017-11-25T00:16:51.648Z,10.98
2017-11-25T00:16:55.913Z,10.99
2017-11-25T00:17:00.285Z,11.05
2017-11-25T00:17:04.711Z,11.08
2017-11-25T00:17:09.081Z,11.06
2017-11-25T00:17:13.436Z,11.02
2017-11-25T00:17:17.587Z,11.02
2017-11-25T00:17:21.859Z,10.99
2017-11-25T00:17:26.231Z,11.01
2017-11-25T00:17:30.604Z,11.01
2017-11-25T00:17:35.016Z,11.08
2017-11-25T00:17:39.275Z,11.01
2017-11-25T00:17:43.448Z,11.11
2017-11-25T00:17:47.737Z,11.01
2017-11-25T00:17:52.019Z,11.05
2017-11-25T00:17:56.296Z,11.08
2017-11-25T00:18:00.333Z,11.05
2017-11-25T00:18:04.630Z,11.08
2017-11-25T00:18:08.891Z,11.03
2017-11-25T00:18:13.300Z,11.02
2017-11-25T00:18:17.461Z,11.01
2017-11-25T00:18:21.520Z,10.98
2017-11-25T00:18:25.909Z,11.02
2017-11-25T00:18:30.271Z,11.03
2017-11-25T00:18:34.530Z,11.01
2017-11-25T00:18:38.829Z,11.05
2017-11-25T00:18:43.213Z,11.01
2017-11-25T00:18:47.598Z,11.02
2017-11-25T00:18:51.991Z,11.08
2017-11-25T00:18:56.265Z,11.09
2017-11-25T00:19:00.641Z,11.01
2017-11-25T00:19:05.007Z,11.03
2017-11-25T00:19:09.377Z,11.08
2017-11-25T00:19:13.642Z,11.02
2017-11-25T00:19:17.824Z,11.05
2017-11-25T00:19:22.105Z,11.11
2017-11-25T00:19:26.253Z,11.03
2017-11-25T00:19:30.640Z,11.06
2017-11-25T00:19:34.926Z,11.06
2017-11-25T00:19:39.183Z,11.03
2017-11-25T00:19:43.456Z,11.05
2017-11-25T00:19:47.531Z,11.09
2017-11-25T00:19:51.789Z,11.09
2017-11-25T00:19:56.050Z,11.09
2017-11-25T00:20:00.429Z,11.02
2017-11-25T00:20:04.708Z,11.06
2017-11-25T00:20:08.990Z,11.01
2017-11-25T00:20:13.389Z,11.02
2017-11-25T00:20:17.537Z,11.02
2017-11-25T00:20:21.797Z,11.08
2017-11-25T00:20:26.073Z,11.08
2017-11-25T00:20:30.337Z,11.09
2017-11-25T00:20:34.489Z,11.11
2017-11-25T00:20:38.882Z,11.01
2017-11-25T00:20:43.138Z,11.11
2017-11-25T00:20:47.424Z,11.08
2017-11-25T00:20:51.736Z,11.05
2017-11-25T00:20:56.107Z,11.11
2017-11-25T00:21:00.255Z,11.08
2017-11-25T00:21:04.598Z,11.01
2017-11-25T00:21:08.857Z,11.06
2017-11-25T00:21:13.137Z,11.12
2017-11-25T00:21:17.507Z,11.01
2017-11-25T00:21:21.774Z,11.03
2017-11-25T00:21:25.933Z,11.03
2017-11-25T00:21:29.988Z,11.03
2017-11-25T00:21:34.129Z,11.06
2017-11-25T00:21:38.310Z,11.05
2017-11-25T00:21:42.573Z,11.05
2017-11-25T00:21:46.822Z,11.06
2017-11-25T00:21:51.244Z,11.03
2017-11-25T00:21:55.556Z,11.02
2017-11-25T00:21:59.845Z,11.05
2017-11-25T00:22:04.145Z,11.06
2017-11-25T00:22:08.303Z,11.02
2017-11-25T00:22:12.593Z,11.03
2017-11-25T00:22:16.866Z,11.06
2017-11-25T00:22:21.233Z,11.06
2017-11-25T00:22:25.506Z,11.02
2017-11-25T00:22:29.895Z,11.05
2017-11-25T00:22:34.151Z,11.03
2017-11-25T00:22:38.433Z,11.02
2017-11-25T00:22:42.607Z,11.05
2017-11-25T00:22:46.873Z,11.03
2017-11-25T00:22:51.230Z,11.06
2017-11-25T00:22:55.510Z,11.09
2017-11-25T00:22:59.785Z,11.03
2017-11-25T00:23:04.185Z,11.01
2017-11-25T00:23:08.554Z,11.08
2017-11-25T00:23:12.816Z,11.03
2017-11-25T00:23:17.218Z,11.06
2017-11-25T00:23:21.539Z,11.09
2017-11-25T00:23:25.802Z,11.05
2017-11-25T00:23:30.045Z,11.03
2017-11-25T00:23:34.431Z,11.05
2017-11-25T00:23:38.811Z,11.06
2017-11-25T00:23:42.952Z,11.01
2017-11-25T00:23:47.351Z,11.02
2017-11-25T00:23:51.613Z,11.03
2017-11-25T00:23:55.883Z,11.05
2017-11-25T00:24:00.042Z,11.03
2017-11-25T00:24:04.431Z,11.08
2017-11-25T00:24:08.809Z,11.05
2017-11-25T00:24:13.069Z,11.03
2017-11-25T00:24:17.325Z,11.01
2017-11-25T00:24:21.630Z,11.09
2017-11-25T00:24:25.993Z,11.05
2017-11-25T00:24:30.254Z,11.12
2017-11-25T00:24:34.629Z,11.05
2017-11-25T00:24:39.020Z,11.06
2017-11-25T00:24:43.406Z,11.09
2017-11-25T00:24:47.569Z,11.09
2017-11-25T00:24:51.944Z,11.05
2017-11-25T00:24:55.983Z,11.01
2017-11-25T00:25:00.250Z,11.06
2017-11-25T00:25:04.737Z,11.01
2017-11-25T00:25:09.003Z,11.03
2017-11-25T00:25:13.055Z,11.05
2017-11-25T00:25:17.317Z,11.01
2017-11-25T00:25:21.593Z,11.03
2017-11-25T00:25:25.984Z,11.03
2017-11-25T00:25:30.370Z,11.06
2017-11-25T00:25:34.527Z,11.02
2017-11-25T00:25:38.705Z,11.06
2017-11-25T00:25:43.127Z,11.06
2017-11-25T00:25:47.276Z,11.03
2017-11-25T00:25:51.438Z,11.06
2017-11-25T00:25:55.815Z,11.06
2017-11-25T00:26:00.083Z,11.02
2017-11-25T00:26:04.459Z,11.02
2017-11-25T00:26:08.849Z,11.06
2017-11-25T00:26:13.222Z,11.08
2017-11-25T00:26:17.591Z,11.03
2017-11-25T00:26:21.624Z,11.03
2017-11-25T00:26:25.681Z,11.03
2017-11-25T00:26:29.929Z,11.01
2017-11-25T00:26:34.291Z,11.09
2017-11-25T00:26:38.675Z,11.03
2017-11-25T00:26:42.821Z,11.03
2017-11-25T00:26:46.849Z,11.03
2017-11-25T00:26:51.004Z,11.01
2017-11-25T00:26:55.286Z,11.01
2017-11-25T00:26:59.585Z,10.99
2017-11-25T00:27:03.874Z,11.03
2017-11-25T00:27:07.916Z,11.06
2017-11-25T00:27:12.062Z,11.02
2017-11-25T00:27:16.443Z,11.02
2017-11-25T00:27:20.589Z,11.03
2017-11-25T00:27:24.958Z,11.01
2017-11-25T00:27:29.102Z,11.03
2017-11-25T00:27:33.269Z,11.05
2017-11-25T00:27:37.309Z,11.03
2017-11-25T00:27:41.697Z,11.05
2017-11-25T00:27:46.130Z,11.08
2017-11-25T00:27:50.409Z,11.09
2017-11-25T00:27:54.668Z,10.98
2017-11-25T00:27:58.619Z,11.09
2017-11-25T00:28:03.034Z,11.03
2017-11-25T00:28:07.448Z,11.08
2017-11-25T00:28:11.708Z,11.03
2017-11-25T00:28:15.859Z,11.08
2017-11-25T00:28:20.256Z,11.03
2017-11-25T00:28:24.644Z,10.95
2017-11-25T00:28:28.918Z,11.03
2017-11-25T00:28:33.069Z,11.03
2017-11-25T00:28:37.318Z,10.99
2017-11-25T00:28:41.582Z,11.05
2017-11-25T00:28:45.846Z,10.94
2017-11-25T00:28:50.127Z,11.02
2017-11-25T00:28:54.269Z,11.06
2017-11-25T00:28:58.561Z,11.02
2017-11-25T00:29:03.005Z,10.99
2017-11-25T00:29:07.255Z,10.99
2017-11-25T00:29:11.639Z,10.95
2017-11-25T00:29:15.683Z,10.95
2017-11-25T00:29:20.057Z,10.94
2017-11-25T00:29:24.344Z,10.95
2017-11-25T00:29:28.592Z,10.94
2017-11-25T00:29:32.965Z,11.02
2017-11-25T00:29:37.230Z,11.01
2017-11-25T00:29:41.502Z,11.01
2017-11-25T00:29:45.882Z,10.98
2017-11-25T00:29:50.144Z,11.01
2017-11-25T00:29:54.418Z,10.95
2017-11-25T00:29:58.803Z,10.94
2017-11-25T00:30:03.283Z,11.01
2017-11-25T00:30:07.588Z,11.02
2017-11-25T00:30:11.853Z,11.01
2017-11-25T00:30:16.113Z,10.95
2017-11-25T00:30:20.496Z,10.94
2017-11-25T00:30:24.534Z,10.99
2017-11-25T00:30:28.806Z,11.01
2017-11-25T00:30:33.076Z,10.95
2017-11-25T00:30:37.336Z,11.06
2017-11-25T00:30:41.480Z,10.95
2017-11-25T00:30:45.761Z,10.98
2017-11-25T00:30:50.131Z,11.02
2017-11-25T00:30:54.390Z,10.95
2017-11-25T00:30:58.806Z,11.01
2017-11-25T00:31:03.153Z,11.01
2017-11-25T00:31:07.531Z,11.01
2017-11-25T00:31:11.846Z,10.95
2017-11-25T00:31:16.188Z,11.01
2017-11-25T00:31:20.450Z,10.98
2017-11-25T00:31:24.816Z,10.99
2017-11-25T00:31:29.001Z,10.93
2017-11-25T00:31:33.265Z,10.93
2017-11-25T00:31:37.540Z,11.02
2017-11-25T00:31:41.806Z,10.99
2017-11-25T00:31:46.195Z,10.93
2017-11-25T00:31:50.469Z,10.95
2017-11-25T00:31:54.895Z,10.98
2017-11-25T00:31:59.288Z,10.91
2017-11-25T00:32:03.557Z,10.94
2017-11-25T00:32:07.676Z,11.01
2017-11-25T00:32:11.841Z,11.02
2017-11-25T00:32:16.108Z,11.02
2017-11-25T00:32:20.492Z,10.93
2017-11-25T00:32:24.879Z,10.91
2017-11-25T00:32:29.150Z,10.95
2017-11-25T00:32:33.309Z,10.95
2017-11-25T00:32:37.677Z,10.98
2017-11-25T00:32:42.044Z,10.91
2017-11-25T00:32:46.325Z,10.88
2017-11-25T00:32:50.585Z,10.93
2017-11-25T00:32:54.876Z,10.91
2017-11-25T00:32:59.157Z,10.9
2017-11-25T00:33:03.830Z,10.95
2017-11-25T00:33:08.229Z,10.94
2017-11-25T00:33:12.503Z,10.91
2017-11-25T00:33:16.774Z,10.98
2017-11-25T00:33:21.166Z,10.91
2017-11-25T00:33:25.442Z,10.91
2017-11-25T00:33:29.695Z,10.98
2017-11-25T00:33:33.747Z,10.94
2017-11-25T00:33:38.000Z,10.9
2017-11-25T00:33:42.261Z,10.93
2017-11-25T00:33:46.538Z,10.98
2017-11-25T00:33:50.962Z,10.99
2017-11-25T00:33:55.069Z,10.98
2017-11-25T00:33:59.337Z,10.94
2017-11-25T00:34:03.592Z,10.95
2017-11-25T00:34:07.749Z,10.99
2017-11-25T00:34:12.121Z,10.99
2017-11-25T00:34:16.387Z,10.9
2017-11-25T00:34:20.657Z,10.98
2017-11-25T00:34:24.948Z,10.9
2017-11-25T00:34:29.364Z,10.87
2017-11-25T00:34:33.422Z,10.94
2017-11-25T00:34:37.704Z,10.99
2017-11-25T00:34:42.130Z,10.99
2017-11-25T00:34:46.521Z,10.98
2017-11-25T00:34:50.556Z,10.99
2017-11-25T00:34:54.834Z,10.99
2017-11-25T00:34:59.259Z,10.95
2017-11-25T00:35:03.410Z,10.98
2017-11-25T00:35:07.804Z,11.02
2017-11-25T00:35:12.092Z,10.99
2017-11-25T00:35:16.357Z,10.94
2017-11-25T00:35:20.746Z,10.99
2017-11-25T00:35:25.003Z,10.84
2017-11-25T00:35:29.385Z,10.95
2017-11-25T00:35:33.666Z,10.94
2017-11-25T00:35:37.711Z,10.87
2017-11-25T00:35:42.076Z,10.84
2017-11-25T00:35:46.221Z,11.01
2017-11-25T00:35:50.598Z,10.91
2017-11-25T00:35:54.732Z,10.91
2017-11-25T00:35:59.006Z,10.93
2017-11-25T00:36:03.611Z,10.88
2017-11-25T00:36:07.760Z,10.86
2017-11-25T00:36:11.928Z,10.91
2017-11-25T00:36:16.207Z,10.83
2017-11-25T00:36:20.578Z,10.98
2017-11-25T00:36:24.868Z,10.88
2017-11-25T00:36:29.247Z,10.86
2017-11-25T00:36:33.419Z,10.87
2017-11-25T00:36:37.821Z,10.88
2017-11-25T00:36:42.201Z,10.88
2017-11-25T00:36:46.242Z,10.9
2017-11-25T00:36:50.637Z,10.83
2017-11-25T00:36:54.802Z,10.81
2017-11-25T00:36:59.044Z,10.84
2017-11-25T00:37:03.427Z,10.94
2017-11-25T00:37:07.578Z,10.93
2017-11-25T00:37:11.953Z,10.83
2017-11-25T00:37:16.269Z,10.83
2017-11-25T00:37:20.648Z,10.91
2017-11-25T00:37:24.908Z,10.84
2017-11-25T00:37:29.061Z,10.88
2017-11-25T00:37:33.219Z,10.78
2017-11-25T00:37:37.508Z,10.78
2017-11-25T00:37:41.774Z,10.9
2017-11-25T00:37:46.035Z,10.87
2017-11-25T00:37:50.420Z,10.76
2017-11-25T00:37:54.795Z,10.94
2017-11-25T00:37:59.183Z,10.91
2017-11-25T00:38:03.557Z,10.81
2017-11-25T00:38:07.725Z,10.84
2017-11-25T00:38:12.084Z,10.87
2017-11-25T00:38:16.380Z,10.94
2017-11-25T00:38:20.627Z,10.93
2017-11-25T00:38:24.915Z,10.88
2017-11-25T00:38:29.369Z,10.95
2017-11-25T00:38:33.743Z,10.99
2017-11-25T00:38:37.897Z,10.87
2017-11-25T00:38:42.164Z,10.91
2017-11-25T00:38:46.552Z,10.91
2017-11-25T00:38:50.704Z,10.91
2017-11-25T00:38:54.994Z,10.93
2017-11-25T00:38:59.253Z,10.86
2017-11-25T00:39:03.814Z,10.98
2017-11-25T00:39:07.974Z,10.8
2017-11-25T00:39:12.361Z,10.91
2017-11-25T00:39:16.738Z,10.84
2017-11-25T00:39:20.997Z,10.9
2017-11-25T00:39:25.270Z,10.88
2017-11-25T00:39:29.647Z,10.88
2017-11-25T00:39:33.918Z,10.84
2017-11-25T00:39:38.195Z,10.9
2017-11-25T00:39:42.331Z,10.91
2017-11-25T00:39:46.717Z,10.86
2017-11-25T00:39:50.861Z,10.83
2017-11-25T00:39:55.164Z,10.81
2017-11-25T00:39:59.565Z,10.88
2017-11-25T00:40:03.708Z,10.94
2017-11-25T00:40:07.878Z,10.9
2017-11-25T00:40:12.159Z,10.83
2017-11-25T00:40:16.432Z,10.76
2017-11-25T00:40:20.824Z,10.84
2017-11-25T00:40:25.199Z,10.86
2017-11-25T00:40:29.475Z,10.76
2017-11-25T00:40:33.748Z,10.84
2017-11-25T00:40:38.122Z,10.86
2017-11-25T00:40:42.391Z,10.81
2017-11-25T00:40:46.537Z,10.84
2017-11-25T00:40:50.851Z,10.93
2017-11-25T00:40:55.113Z,10.87
2017-11-25T00:40:59.261Z,10.9
2017-11-25T00:41:03.525Z,10.84
2017-11-25T00:41:07.909Z,10.84
2017-11-25T00:41:12.172Z,10.95
2017-11-25T00:41:16.477Z,10.91
2017-11-25T00:41:20.830Z,10.84
2017-11-25T00:41:25.238Z,10.88
2017-11-25T00:41:29.503Z,10.87
2017-11-25T00:41:33.773Z,10.86
2017-11-25T00:41:38.165Z,10.83
2017-11-25T00:41:42.440Z,10.87
2017-11-25T00:41:46.821Z,10.84
2017-11-25T00:41:51.205Z,10.83
2017-11-25T00:41:55.474Z,10.88
2017-11-25T00:41:59.741Z,10.83
2017-11-25T00:42:04.177Z,10.78
2017-11-25T00:42:08.444Z,10.84
2017-11-25T00:42:12.816Z,10.84
2017-11-25T00:42:17.211Z,10.83
2017-11-25T00:42:21.474Z,10.81
2017-11-25T00:42:25.717Z,10.81
2017-11-25T00:42:29.989Z,10.86
2017-11-25T00:42:34.254Z,10.8
2017-11-25T00:42:38.630Z,10.83
2017-11-25T00:42:42.774Z,10.84
2017-11-25T00:42:47.036Z,10.86
2017-11-25T00:42:51.062Z,10.84
2017-11-25T00:42:55.099Z,10.8
2017-11-25T00:42:59.370Z,10.84
2017-11-25T00:43:03.825Z,10.86
2017-11-25T00:43:08.097Z,10.83
2017-11-25T00:43:12.267Z,10.84
2017-11-25T00:43:16.408Z,10.83
2017-11-25T00:43:20.481Z,10.81
2017-11-25T00:43:24.908Z,10.8
2017-11-25T00:43:28.954Z,10.83
2017-11-25T00:43:33.329Z,10.81
2017-11-25T00:43:37.715Z,10.84
2017-11-25T00:43:41.980Z,10.81
2017-11-25T00:43:46.351Z,10.83
2017-11-25T00:43:50.518Z,10.84
2017-11-25T00:43:54.783Z,10.81
2017-11-25T00:43:59.039Z,10.83
2017-11-25T00:44:03.523Z,10.84
2017-11-25T00:44:07.701Z,10.81
2017-11-25T00:44:11.973Z,10.78
2017-11-25T00:44:16.037Z,10.83
2017-11-25T00:44:20.422Z,10.81
2017-11-25T00:44:24.682Z,10.8
2017-11-25T00:44:28.825Z,10.81
2017-11-25T00:44:33.203Z,10.81
2017-11-25T00:44:37.252Z,10.8
2017-11-25T00:44:41.643Z,10.83
2017-11-25T00:44:45.899Z,10.83
2017-11-25T00:44:50.174Z,10.8
2017-11-25T00:44:54.584Z,10.81
2017-11-25T00:44:58.951Z,10.76
2017-11-25T00:45:03.380Z,10.8
2017-11-25T00:45:07.758Z,10.81
2017-11-25T00:45:12.032Z,10.83
2017-11-25T00:45:16.302Z,10.78
2017-11-25T00:45:20.692Z,10.78
2017-11-25T00:45:25.133Z,10.84
2017-11-25T00:45:29.390Z,10.84
2017-11-25T00:45:33.782Z,10.8
2017-11-25T00:45:38.184Z,10.78
2017-11-25T00:45:42.562Z,10.76
2017-11-25T00:45:46.727Z,10.83
2017-11-25T00:45:50.985Z,10.84
2017-11-25T00:45:55.370Z,10.73
2017-11-25T00:45:59.649Z,10.84
2017-11-25T00:46:04.015Z,10.8
2017-11-25T00:46:08.410Z,10.76
2017-11-25T00:46:12.725Z,10.8
2017-11-25T00:46:17.099Z,10.78
2017-11-25T00:46:21.470Z,10.76
2017-11-25T00:46:25.516Z,10.73
2017-11-25T00:46:29.905Z,10.8
2017-11-25T00:46:34.144Z,10.76
2017-11-25T00:46:38.314Z,10.7
2017-11-25T00:46:42.597Z,10.78
2017-11-25T00:46:46.861Z,10.7
2017-11-25T00:46:51.240Z,10.78
2017-11-25T00:46:55.616Z,10.7
2017-11-25T00:46:59.875Z,10.78
2017-11-25T00:47:04.255Z,10.84
2017-11-25T00:47:08.553Z,10.81
2017-11-25T00:47:12.939Z,10.68
2017-11-25T00:47:17.213Z,10.7
2017-11-25T00:47:21.493Z,10.7
2017-11-25T00:47:25.646Z,10.7
2017-11-25T00:47:29.898Z,10.72
2017-11-25T00:47:34.048Z,10.72
2017-11-25T00:47:38.214Z,10.7
2017-11-25T00:47:42.594Z,10.7
2017-11-25T00:47:46.955Z,10.72
2017-11-25T00:47:51.334Z,10.69
2017-11-25T00:47:55.726Z,10.7
2017-11-25T00:48:00.105Z,10.72
2017-11-25T00:48:04.688Z,10.72
2017-11-25T00:48:08.767Z,10.7
2017-11-25T00:48:12.817Z,10.73
2017-11-25T00:48:16.988Z,10.63
2017-11-25T00:48:21.265Z,10.7
2017-11-25T00:48:25.525Z,10.68
2017-11-25T00:48:29.677Z,10.65
2017-11-25T00:48:33.959Z,10.72
2017-11-25T00:48:38.217Z,10.66
2017-11-25T00:48:42.492Z,10.7
2017-11-25T00:48:46.881Z,10.68
2017-11-25T00:48:51.188Z,10.68
2017-11-25T00:48:55.569Z,10.68
2017-11-25T00:48:59.832Z,10.69
2017-11-25T00:49:03.875Z,10.68
2017-11-25T00:49:08.278Z,10.65
2017-11-25T00:49:12.560Z,10.65
2017-11-25T00:49:16.978Z,10.65
2017-11-25T00:49:21.353Z,10.65
2017-11-25T00:49:25.509Z,10.62
2017-11-25T00:49:29.782Z,10.66
2017-11-25T00:49:34.176Z,10.62
2017-11-25T00:49:38.341Z,10.55
2017-11-25T00:49:42.500Z,10.65
2017-11-25T00:49:46.859Z,10.68
2017-11-25T00:49:51.222Z,10.63
2017-11-25T00:49:55.600Z,10.65
2017-11-25T00:49:59.976Z,10.65
2017-11-25T00:50:04.491Z,10.6
2017-11-25T00:50:08.776Z,10.62
2017-11-25T00:50:12.805Z,10.6
2017-11-25T00:50:16.965Z,10.62
2017-11-25T00:50:21.239Z,10.62
2017-11-25T00:50:25.608Z,10.57
2017-11-25T00:50:29.850Z,10.6
2017-11-25T00:50:34.150Z,10.6
2017-11-25T00:50:38.544Z,10.6
2017-11-25T00:50:42.806Z,10.55
2017-11-25T00:50:47.067Z,10.62
2017-11-25T00:50:51.323Z,10.63
2017-11-25T00:50:55.708Z,10.6
2017-11-25T00:51:00.101Z,10.6
2017-11-25T00:51:04.732Z,10.6
2017-11-25T00:51:09.033Z,10.6
2017-11-25T00:51:13.433Z,10.68
2017-11-25T00:51:17.692Z,10.58
2017-11-25T00:51:21.837Z,10.58
2017-11-25T00:51:26.217Z,10.6
2017-11-25T00:51:30.603Z,10.69
2017-11-25T00:51:34.758Z,10.58
2017-11-25T00:51:38.912Z,10.63
2017-11-25T00:51:43.065Z,10.6
2017-11-25T00:51:47.442Z,10.66
2017-11-25T00:51:51.825Z,10.6
2017-11-25T00:51:56.093Z,10.55
2017-11-25T00:52:00.477Z,10.6
2017-11-25T00:52:04.900Z,10.57
2017-11-25T00:52:09.072Z,10.65
2017-11-25T00:52:13.447Z,10.6
2017-11-25T00:52:17.862Z,10.6
2017-11-25T00:52:22.107Z,10.55
2017-11-25T00:52:26.144Z,10.63
2017-11-25T00:52:30.523Z,10.6
2017-11-25T00:52:34.787Z,10.57
2017-11-25T00:52:38.950Z,10.68
2017-11-25T00:52:43.219Z,10.6
2017-11-25T00:52:47.586Z,10.66
2017-11-25T00:52:51.972Z,10.63
2017-11-25T00:52:56.360Z,10.65
2017-11-25T00:53:00.510Z,10.63
2017-11-25T00:53:05.078Z,10.6
2017-11-25T00:53:09.382Z,10.62
2017-11-25T00:53:13.739Z,10.6
2017-11-25T00:53:18.132Z,10.66
2017-11-25T00:53:22.567Z,10.65
2017-11-25T00:53:26.943Z,10.65
2017-11-25T00:53:31.222Z,10.62
2017-11-25T00:53:35.596Z,10.6
2017-11-25T00:53:39.852Z,10.57
2017-11-25T00:53:44.106Z,10.6
2017-11-25T00:53:48.265Z,10.65
2017-11-25T00:53:52.530Z,10.57
2017-11-25T00:53:56.679Z,10.55
2017-11-25T00:54:01.056Z,10.52
2017-11-25T00:54:05.307Z,10.63
2017-11-25T00:54:09.589Z,10.58
2017-11-25T00:54:13.905Z,10.6
2017-11-25T00:54:18.171Z,10.58
2017-11-25T00:54:22.430Z,10.6
2017-11-25T00:54:26.815Z,10.55
2017-11-25T00:54:31.064Z,10.58
2017-11-25T00:54:35.323Z,10.58
2017-11-25T00:54:39.712Z,10.54
2017-11-25T00:54:44.075Z,10.6
2017-11-25T00:54:48.117Z,10.55
2017-11-25T00:54:52.520Z,10.62
2017-11-25T00:54:56.935Z,10.55
2017-11-25T00:55:01.300Z,10.65
2017-11-25T00:55:05.579Z,10.68
2017-11-25T00:55:09.957Z,10.65
2017-11-25T00:55:14.223Z,10.58
2017-11-25T00:55:18.493Z,10.58
2017-11-25T00:55:22.639Z,10.6
2017-11-25T00:55:27.001Z,10.66